Time;durP1;ratioP1;P1;durP2;ratioP2;P2;SDS_P1;SDS_P2;PMS_P1;PMS_P2;Temp;Humidity;BMP_temperature;BMP_pressure;BME280_temperature;BME280_humidity;BME280_pressure;Samples;Min_cycle;Max_cycle;Signal;HPM_P1;HPM_P2
2023/07/08 00:00:24;;;;;;;;;;;22.90;38.90;;;19.29;58.65;95636.44;4972567;28;20431;-52
2023/07/08 00:02:51;;;;;;;;;;;23.00;39.00;;;19.32;58.76;95660.91;4966953;28;19937;-48
2023/07/08 00:05:21;;;;;;;;;;;23.00;39.00;;;19.35;59.33;95683.78;4957102;28;19917;-49
2023/07/08 00:07:47;;;;;;;;;;;23.00;39.00;;;19.39;57.27;95695.53;4971183;28;19963;-49
2023/07/08 00:10:17;;;;;;;;;;;23.10;39.20;;;19.56;56.40;95698.25;4946654;28;20440;-50
2023/07/08 00:12:49;;;;;;;;;;;23.10;39.30;;;19.72;55.51;95703.19;4962567;28;20353;-50
2023/07/08 00:15:16;;;;;;;;;;;23.20;39.30;;;19.86;54.34;95707.28;4972334;28;20373;-49
2023/07/08 00:17:42;;;;;;;;;;;23.30;39.20;;;20.01;54.57;95707.91;4965735;28;19960;-48
2023/07/08 00:20:36;;;;;;;;;;;23.40;39.20;;;20.19;56.91;95703.25;4954078;28;19921;-52
2023/07/08 00:23:03;;;;;;;;;;;23.40;39.10;;;20.29;56.89;95694.78;4955877;28;20332;-52
2023/07/08 00:25:30;;;;;;;;;;;23.50;39.10;;;20.36;58.92;95691.56;4960259;28;19992;-48
2023/07/08 00:27:56;;;;;;;;;;;23.60;39.10;;;20.32;53.25;95672.50;4951528;28;19918;-48
2023/07/08 00:30:25;;;;;;;;;;;23.60;39.20;;;20.42;54.98;95655.91;4953950;28;20010;-48
2023/07/08 00:32:54;;;;;;;;;;;23.60;39.20;;;20.42;56.64;95634.25;4954000;28;19957;-47
2023/07/08 00:35:40;;;;;;;;;;;23.60;39.30;;;20.39;56.50;95618.66;4953072;28;19914;-49
2023/07/08 00:38:28;;;;;;;;;;;23.60;39.40;;;20.33;57.29;95622.69;4953707;28;19964;-51
2023/07/08 00:41:02;;;;;;;;;;;23.60;39.60;;;20.24;57.32;95625.41;4946577;28;19925;-50
2023/07/08 00:43:38;;;;;;;;;;;23.60;39.60;;;20.23;57.45;95628.47;4953664;28;19957;-48
2023/07/08 00:46:32;;;;;;;;;;;23.70;39.80;;;20.23;57.93;95631.94;4952835;28;19913;-47
2023/07/08 00:49:38;;;;;;;;;;;23.70;39.90;;;20.23;60.23;95625.75;4953684;28;20369;-48
2023/07/08 00:52:28;;;;;;;;;;;23.70;39.90;;;20.09;61.54;95636.81;4951221;28;19914;-48
2023/07/08 00:55:02;;;;;;;;;;;23.60;40.00;;;19.83;63.06;95637.66;4953874;28;19914;-50
2023/07/08 00:57:35;;;;;;;;;;;23.60;40.10;;;19.77;70.85;95663.25;4952543;28;20009;-48
2023/07/08 01:00:15;;;;;;;;;;;23.40;40.30;;;19.37;73.56;95685.06;4965089;28;20373;-48
2023/07/08 01:02:56;;;;;;;;;;;23.20;40.90;;;19.18;74.38;95652.97;4952681;28;19910;-47
2023/07/08 01:05:27;;;;;;;;;;;22.80;41.30;;;18.80;81.02;95649.25;4950148;28;19949;-49
2023/07/08 01:08:01;;;;;;;;;;;22.50;41.80;;;18.68;82.53;95652.56;4954104;28;19918;-47
2023/07/08 01:10:39;;;;;;;;;;;22.20;42.20;;;18.33;88.38;95646.25;4961142;28;19941;-48
2023/07/08 01:13:09;;;;;;;;;;;21.90;42.70;;;17.99;90.11;95635.03;4936849;28;20016;-46
2023/07/08 01:15:44;;;;;;;;;;;21.70;43.10;;;17.75;88.47;95627.28;4947218;28;20004;-51
2023/07/08 01:18:16;;;;;;;;;;;21.40;43.90;;;17.71;92.64;95625.53;4953512;28;19910;-47
2023/07/08 01:20:43;;;;;;;;;;;21.30;44.10;;;17.60;94.67;95629.56;4954168;28;19914;-46
2023/07/08 01:23:12;;;;;;;;;;;21.10;44.40;;;17.38;99.72;95659.97;4956219;28;19921;-46
2023/07/08 01:25:41;;;;;;;;;;;21.00;44.80;;;17.32;97.70;95673.56;4956968;28;19918;-49
2023/07/08 01:28:07;;;;;;;;;;;20.90;45.20;;;17.23;100.00;95664.63;4951862;28;19922;-47
2023/07/08 01:30:33;;;;;;;;;;;20.80;45.50;;;17.06;100.00;95646.44;4954668;28;20009;-47
2023/07/08 01:33:10;;;;;;;;;;;20.70;45.90;;;16.76;100.00;95655.19;4957249;28;19949;-44
2023/07/08 01:35:36;;;;;;;;;;;20.60;46.10;;;16.74;100.00;95650.09;4960890;28;20017;-48
2023/07/08 01:38:08;;;;;;;;;;;20.50;46.40;;;16.64;100.00;95650.31;4976642;28;20012;-48
2023/07/08 01:40:37;;;;;;;;;;;20.50;46.80;;;16.59;100.00;95651.19;4959260;28;20286;-47
2023/07/08 01:43:05;;;;;;;;;;;20.40;47.00;;;16.59;100.00;95645.03;4970024;28;19910;-50
2023/07/08 01:45:37;;;;;;;;;;;20.30;47.40;;;16.62;100.00;95645.22;4973852;28;20434;-49
2023/07/08 01:48:11;;;;;;;;;;;20.30;47.70;;;16.60;100.00;95649.28;4959673;28;19910;-44
2023/07/08 01:50:50;;;;;;;;;;;20.30;47.90;;;16.42;100.00;95651.81;4976403;28;20410;-51
2023/07/08 01:53:28;;;;;;;;;;;20.20;48.10;;;16.43;100.00;95652.59;4962687;28;19909;-50
2023/07/08 01:55:54;;;;;;;;;;;20.20;48.20;;;16.40;100.00;95651.31;4975965;28;19920;-47
2023/07/08 01:58:20;;;;;;;;;;;20.20;48.50;;;16.47;100.00;95648.22;4974655;28;19910;-48
2023/07/08 02:00:48;;;;;;;;;;;20.20;48.80;;;16.69;100.00;95649.38;4975994;28;20063;-46
2023/07/08 02:03:15;;;;;;;;;;;20.20;48.90;;;16.86;100.00;95653.06;4975995;28;19913;-50
2023/07/08 02:05:41;;;;;;;;;;;20.20;49.00;;;17.00;100.00;95649.56;4958773;28;19909;-50
2023/07/08 02:08:07;;;;;;;;;;;20.30;49.20;;;17.03;100.00;95644.34;4962029;28;20009;-48
2023/07/08 02:10:33;;;;;;;;;;;20.30;49.30;;;16.97;100.00;95642.09;4959654;28;19916;-46
2023/07/08 02:12:58;;;;;;;;;;;20.40;49.40;;;16.91;100.00;95640.59;4970484;28;20291;-49
2023/07/08 02:15:26;;;;;;;;;;;20.40;49.40;;;16.81;100.00;95637.03;4973631;28;19916;-47
2023/07/08 02:17:52;;;;;;;;;;;20.40;49.50;;;16.85;100.00;95638.03;4956593;28;19910;-46
2023/07/08 02:20:18;;;;;;;;;;;20.40;49.60;;;16.85;100.00;95638.03;4975645;28;19914;-47
2023/07/08 02:22:44;;;;;;;;;;;20.40;49.80;;;16.84;100.00;95631.06;4965380;28;19921;-49
2023/07/08 02:25:10;;;;;;;;;;;20.40;49.90;;;16.82;100.00;95632.44;4956907;28;20305;-49
2023/07/08 02:27:37;;;;;;;;;;;20.40;50.00;;;16.78;100.00;95634.94;4967589;28;19917;-46
2023/07/08 02:30:03;;;;;;;;;;;20.40;50.20;;;16.72;100.00;95628.06;4964421;28;20012;-50
2023/07/08 02:32:29;;;;;;;;;;;20.40;50.30;;;16.64;100.00;95626.09;4975078;28;19920;-47
2023/07/08 02:34:54;;;;;;;;;;;20.40;50.40;;;16.64;100.00;95628.78;4970128;28;19910;-47
2023/07/08 02:37:20;;;;;;;;;;;20.30;50.50;;;16.63;100.00;95637.94;4975099;28;19963;-47
2023/07/08 02:39:46;;;;;;;;;;;20.30;50.70;;;16.54;100.00;95650.50;4971433;28;19984;-48
2023/07/08 02:42:12;;;;;;;;;;;20.30;50.80;;;16.56;100.00;95659.06;4969858;28;19914;-46
2023/07/08 02:44:37;;;;;;;;;;;20.30;50.90;;;16.50;100.00;95650.31;4973968;28;19948;-48
2023/07/08 02:47:03;;;;;;;;;;;20.30;51.00;;;16.49;100.00;95656.00;4962092;28;19942;-52
2023/07/08 02:49:30;;;;;;;;;;;20.20;51.20;;;16.49;100.00;95661.38;4975171;28;20451;-47
2023/07/08 02:51:56;;;;;;;;;;;20.20;51.30;;;16.51;100.00;95676.09;4971367;28;19964;-48
2023/07/08 02:54:21;;;;;;;;;;;20.20;51.50;;;16.51;100.00;95673.41;4975394;28;19989;-49
2023/07/08 02:56:47;;;;;;;;;;;20.20;51.60;;;16.52;100.00;95684.97;4975358;28;19909;-48
2023/07/08 02:59:13;;;;;;;;;;;20.20;51.80;;;16.48;100.00;95700.09;4967723;28;19956;-49
2023/07/08 03:01:41;;;;;;;;;;;20.30;52.00;;;16.48;100.00;95705.47;4975297;28;20343;-46
2023/07/08 03:04:13;;;;;;;;;;;20.30;52.00;;;16.51;100.00;95700.28;4967245;28;19914;-49
2023/07/08 03:06:45;;;;;;;;;;;20.30;52.10;;;16.50;100.00;95714.03;4968195;28;19917;-46
2023/07/08 03:09:12;;;;;;;;;;;20.30;52.20;;;16.47;100.00;95722.69;4974609;28;19910;-53
2023/07/08 03:11:39;;;;;;;;;;;20.30;52.30;;;16.49;100.00;95725.91;4972268;28;19916;-48
2023/07/08 03:14:06;;;;;;;;;;;20.30;52.40;;;16.52;100.00;95730.69;4974582;28;20013;-48
2023/07/08 03:16:32;;;;;;;;;;;20.30;52.50;;;16.51;100.00;95746.00;4966863;28;20000;-47
2023/07/08 03:18:57;;;;;;;;;;;20.30;52.60;;;16.52;100.00;95741.44;4966582;28;20005;-48
2023/07/08 03:21:23;;;;;;;;;;;20.30;52.60;;;16.58;100.00;95745.63;4972469;28;19924;-51
2023/07/08 03:23:51;;;;;;;;;;;20.40;52.80;;;16.61;100.00;95745.03;4966278;28;20001;-47
2023/07/08 03:26:22;;;;;;;;;;;20.40;52.80;;;16.64;100.00;95731.78;4973692;28;20404;-46
2023/07/08 03:28:49;;;;;;;;;;;20.40;52.90;;;16.64;100.00;95728.28;4961558;28;19910;-46
2023/07/08 03:31:16;;;;;;;;;;;20.40;52.90;;;16.70;100.00;95718.22;4972179;28;19914;-48
2023/07/08 03:33:42;;;;;;;;;;;20.40;53.00;;;16.74;100.00;95730.78;4970254;28;20381;-48
2023/07/08 03:36:23;;;;;;;;;;;20.40;53.00;;;16.71;100.00;95747.50;4973169;28;19910;-46
2023/07/08 03:38:55;;;;;;;;;;;20.40;53.10;;;16.70;100.00;95762.03;4973153;28;20047;-46
2023/07/08 03:41:22;;;;;;;;;;;20.40;53.90;;;16.72;100.00;95759.84;4956807;28;19922;-46
2023/07/08 03:43:50;;;;;;;;;;;20.40;53.50;;;16.75;100.00;95778.13;4956037;28;19937;-46
2023/07/08 03:46:19;;;;;;;;;;;20.40;53.60;;;16.73;100.00;95788.34;4965405;28;19957;-48
2023/07/08 03:48:46;;;;;;;;;;;20.30;53.70;;;16.78;100.00;95787.47;4970239;28;20000;-47
2023/07/08 03:51:22;;;;;;;;;;;20.40;53.90;;;16.79;100.00;95783.69;4973968;28;19910;-46
2023/07/08 03:53:48;;;;;;;;;;;20.40;54.00;;;16.80;100.00;95778.03;4971142;28;19917;-48
2023/07/08 03:56:14;;;;;;;;;;;20.40;54.00;;;16.82;100.00;95781.19;4973769;28;20412;-48
2023/07/08 03:58:41;;;;;;;;;;;20.40;54.00;;;16.77;100.00;95788.59;4965608;28;19918;-46
2023/07/08 04:01:21;;;;;;;;;;;20.40;54.00;;;16.73;100.00;95787.53;4973711;28;20016;-51
2023/07/08 04:03:48;;;;;;;;;;;20.40;54.00;;;16.66;100.00;95779.88;4969173;28;19941;-46
2023/07/08 04:06:14;;;;;;;;;;;20.40;54.00;;;16.66;100.00;95785.25;4966701;28;19914;-46
2023/07/08 04:08:40;;;;;;;;;;;20.40;54.10;;;16.66;100.00;95777.19;4956776;28;20021;-47
2023/07/08 04:11:12;;;;;;;;;;;20.40;54.10;;;16.64;100.00;95782.09;4963557;28;20016;-46
2023/07/08 04:13:37;;;;;;;;;;;20.40;54.20;;;16.52;100.00;95766.44;4966777;28;19968;-47
2023/07/08 04:16:06;;;;;;;;;;;20.40;54.30;;;16.50;100.00;95755.16;4963376;28;19957;-47
2023/07/08 04:18:32;;;;;;;;;;;20.40;54.30;;;16.42;100.00;95742.41;4961639;28;19964;-46
2023/07/08 04:20:58;;;;;;;;;;;20.30;54.40;;;16.43;100.00;95717.13;4970510;28;20335;-46
2023/07/08 04:23:25;;;;;;;;;;;20.30;54.50;;;16.47;100.00;95715.44;4962469;28;19909;-50
2023/07/08 04:25:55;;;;;;;;;;;20.40;54.60;;;16.55;100.00;95698.59;4962349;28;20388;-46
2023/07/08 04:28:21;;;;;;;;;;;20.30;55.20;;;16.65;100.00;95693.03;4955831;28;19925;-46
2023/07/08 04:30:48;;;;;;;;;;;20.40;54.70;;;16.79;96.69;95721.81;4972120;28;20435;-49
2023/07/08 04:33:15;;;;;;;;;;;20.40;54.70;;;16.91;97.33;95745.53;4971711;28;19913;-46
2023/07/08 04:35:43;;;;;;;;;;;20.40;54.90;;;16.94;99.03;95763.75;4958770;28;19910;-47
2023/07/08 04:38:21;;;;;;;;;;;20.40;55.00;;;16.94;98.24;95775.31;4973238;28;20071;-46
2023/07/08 04:40:52;;;;;;;;;;;20.40;54.90;;;16.97;97.93;95787.38;4959588;28;19968;-47
2023/07/08 04:43:20;;;;;;;;;;;20.40;54.90;;;16.99;100.00;95786.00;4953965;28;19910;-48
2023/07/08 04:45:51;;;;;;;;;;;20.40;54.80;;;16.96;100.00;95801.94;4952144;28;19914;-47
2023/07/08 04:48:21;;;;;;;;;;;20.50;54.90;;;16.83;100.00;95827.75;4952681;28;19910;-48
2023/07/08 04:50:50;;;;;;;;;;;20.40;54.90;;;16.80;100.00;95833.72;4953683;28;20332;-46
2023/07/08 04:53:16;;;;;;;;;;;20.40;55.20;;;16.83;100.00;95846.56;4971871;28;19910;-47
2023/07/08 04:55:51;;;;;;;;;;;20.40;55.30;;;16.81;100.00;95844.16;4964172;28;20446;-46
2023/07/08 04:58:16;;;;;;;;;;;20.40;55.30;;;16.75;100.00;95845.34;4956854;28;19933;-46
2023/07/08 05:00:42;;;;;;;;;;;20.40;55.30;;;16.76;100.00;95848.84;4957707;28;19956;-47
2023/07/08 05:03:08;;;;;;;;;;;20.40;55.30;;;16.74;100.00;95842.94;4957550;28;19910;-47
2023/07/08 05:05:34;;;;;;;;;;;20.40;55.30;;;16.76;100.00;95844.25;4956681;28;19921;-45
2023/07/08 05:08:00;;;;;;;;;;;20.30;55.30;;;16.76;100.00;95848.84;4972264;28;20017;-46
2023/07/08 05:10:26;;;;;;;;;;;20.30;55.30;;;16.74;100.00;95857.19;4949507;28;19910;-46
2023/07/08 05:12:52;;;;;;;;;;;20.30;55.30;;;16.72;100.00;95862.06;4950810;28;20396;-47
2023/07/08 05:15:18;;;;;;;;;;;20.30;55.40;;;16.62;100.00;95879.19;4916331;28;22788;-45
2023/07/08 05:17:43;;;;;;;;;;;20.30;56.00;;;16.62;100.00;95889.13;4956027;28;19914;-48
2023/07/08 05:20:13;;;;;;;;;;;20.30;55.40;;;16.60;100.00;95897.47;4957439;28;19917;-45
2023/07/08 05:22:41;;;;;;;;;;;20.30;55.40;;;16.64;100.00;95900.41;4963686;28;19914;-45
2023/07/08 05:25:07;;;;;;;;;;;20.40;55.40;;;16.62;100.00;95906.06;4957407;28;19910;-47
2023/07/08 05:27:33;;;;;;;;;;;20.30;55.40;;;16.59;100.00;95903.97;4955860;28;19948;-46
2023/07/08 05:30:01;;;;;;;;;;;20.40;55.50;;;16.57;100.00;95902.66;4957325;28;19984;-52
2023/07/08 05:32:27;;;;;;;;;;;20.40;55.50;;;16.59;100.00;95897.78;4955843;28;19917;-46
2023/07/08 05:34:54;;;;;;;;;;;20.40;55.50;;;16.61;100.00;95912.56;4944544;28;20013;-46
2023/07/08 05:37:24;;;;;;;;;;;20.40;55.50;;;16.60;100.00;95919.00;4955234;28;20344;-46
2023/07/08 05:39:54;;;;;;;;;;;20.40;55.50;;;16.62;100.00;95924.09;4955291;28;20262;-45
2023/07/08 05:42:21;;;;;;;;;;;20.50;55.60;;;16.53;100.00;95923.97;4956563;28;19914;-46
2023/07/08 05:44:48;;;;;;;;;;;20.50;55.70;;;16.55;100.00;95927.16;4956955;28;19963;-49
2023/07/08 05:47:15;;;;;;;;;;;20.50;55.70;;;16.62;100.00;95932.16;4955687;28;19960;-47
2023/07/08 05:49:41;;;;;;;;;;;20.60;55.80;;;16.67;100.00;95934.75;4956721;28;19932;-46
2023/07/08 05:52:10;;;;;;;;;;;20.60;55.80;;;16.72;100.00;95936.56;4956237;28;19910;-47
2023/07/08 05:54:38;;;;;;;;;;;20.60;55.70;;;16.79;100.00;95940.50;4969836;28;19909;-47
2023/07/08 05:57:09;;;;;;;;;;;20.70;55.70;;;16.82;100.00;95956.06;4955466;28;20471;-47
2023/07/08 05:59:38;;;;;;;;;;;20.80;55.80;;;16.86;100.00;95961.66;4955339;28;19917;-46
2023/07/08 06:02:06;;;;;;;;;;;20.90;55.80;;;16.86;100.00;95967.03;4954155;28;19918;-48
2023/07/08 06:04:32;;;;;;;;;;;20.90;56.40;;;16.95;100.00;95975.22;4951162;28;19910;-48
2023/07/08 06:06:58;;;;;;;;;;;20.90;55.80;;;17.03;100.00;95971.88;4955879;28;20300;-47
2023/07/08 06:09:24;;;;;;;;;;;21.10;55.80;;;17.11;100.00;95965.81;4955907;28;19920;-50
2023/07/08 06:11:50;;;;;;;;;;;21.20;55.70;;;17.22;100.00;95972.59;4959650;28;20365;-54
2023/07/08 06:14:16;;;;;;;;;;;21.40;55.60;;;17.33;100.00;95960.53;4971358;28;20293;-47
2023/07/08 06:16:41;;;;;;;;;;;21.60;55.50;;;17.49;100.00;95962.94;4955250;28;19910;-49
2023/07/08 06:19:08;;;;;;;;;;;21.80;55.40;;;17.58;100.00;95959.25;4943550;28;19993;-47
2023/07/08 06:21:34;;;;;;;;;;;22.00;55.30;;;17.78;100.00;95958.06;4955411;28;19964;-50
2023/07/08 06:24:00;;;;;;;;;;;22.20;55.80;;;18.03;100.00;95964.81;4951770;28;19965;-49
2023/07/08 06:26:26;;;;;;;;;;;22.40;55.10;;;18.22;100.00;95975.47;4968109;28;19921;-49
2023/07/08 06:28:51;;;;;;;;;;;22.70;55.40;;;18.30;100.00;95978.53;4954357;28;19938;-52
2023/07/08 06:31:17;;;;;;;;;;;22.80;55.00;;;18.40;100.00;95959.44;4955771;28;19910;-47
2023/07/08 06:33:43;;;;;;;;;;;22.90;55.00;;;18.52;98.63;95969.66;4953208;28;19934;-47
2023/07/08 06:36:09;;;;;;;;;;;23.00;54.90;;;18.66;99.04;95965.81;4953833;28;19910;-47
2023/07/08 06:38:35;;;;;;;;;;;23.10;54.80;;;18.81;98.45;95963.91;4956115;28;20273;-47
2023/07/08 06:41:01;;;;;;;;;;;23.30;54.70;;;18.93;98.17;95972.22;4954218;28;19965;-47
2023/07/08 06:43:26;;;;;;;;;;;23.40;54.60;;;19.04;98.00;95967.34;4955913;28;19910;-47
2023/07/08 06:45:52;;;;;;;;;;;23.60;54.50;;;19.04;94.64;95965.44;4954557;28;19909;-49
2023/07/08 06:48:18;;;;;;;;;;;23.70;54.40;;;19.03;91.32;95966.56;4956154;28;19910;-47
2023/07/08 06:50:47;;;;;;;;;;;23.80;54.20;;;19.07;91.18;95967.53;4955809;28;19918;-46
2023/07/08 06:53:14;;;;;;;;;;;23.90;54.20;;;19.09;90.88;95969.94;4954543;28;19910;-47
2023/07/08 06:55:40;;;;;;;;;;;23.90;54.00;;;19.19;90.27;95970.47;4955992;28;19910;-46
2023/07/08 06:58:06;;;;;;;;;;;23.90;53.90;;;19.20;89.60;95968.56;4961294;28;19917;-49
2023/07/08 07:00:32;;;;;;;;;;;24.00;53.80;;;19.29;89.17;95977.50;4955449;28;20005;-47
2023/07/08 07:02:58;;;;;;;;;;;24.00;53.70;;;19.26;89.01;95980.81;4955666;28;19964;-49
2023/07/08 07:05:24;;;;;;;;;;;24.10;53.60;;;19.27;86.66;95979.69;4954347;28;19924;-48
2023/07/08 07:07:50;;;;;;;;;;;24.10;53.60;;;19.31;83.72;95977.19;4955515;28;19909;-47
2023/07/08 07:10:15;;;;;;;;;;;24.20;53.50;;;19.41;81.89;95971.53;4954115;28;19918;-47
2023/07/08 07:12:41;;;;;;;;;;;24.20;53.30;;;19.47;82.19;95964.88;4955164;28;19961;-48
2023/07/08 07:15:07;;;;;;;;;;;24.20;53.20;;;19.47;82.70;95959.47;4969952;28;19910;-47
2023/07/08 07:17:35;;;;;;;;;;;24.30;53.30;;;19.46;82.52;95966.00;4954190;28;19964;-49
2023/07/08 07:20:01;;;;;;;;;;;24.20;53.00;;;19.55;83.11;95964.09;4954996;28;19933;-47
2023/07/08 07:22:28;;;;;;;;;;;24.20;53.00;;;19.61;82.61;95965.53;4952872;28;19914;-47
2023/07/08 07:24:54;;;;;;;;;;;24.20;52.90;;;19.64;80.20;95964.16;4955117;28;19921;-50
2023/07/08 07:27:20;;;;;;;;;;;24.20;52.90;;;19.55;81.01;95963.31;4954953;28;19973;-47
2023/07/08 07:29:49;;;;;;;;;;;24.20;52.90;;;19.60;81.11;95955.84;4954071;28;19921;-48
2023/07/08 07:32:18;;;;;;;;;;;24.20;52.80;;;19.62;79.38;95953.66;4966687;28;19967;-48
2023/07/08 07:34:47;;;;;;;;;;;24.10;52.70;;;19.68;78.85;95951.63;4954657;28;19914;-49
2023/07/08 07:37:15;;;;;;;;;;;24.10;52.70;;;19.78;80.39;95947.84;4954934;28;19949;-49
2023/07/08 07:39:42;;;;;;;;;;;24.10;52.60;;;19.69;77.49;95950.53;4953817;28;19916;-51
2023/07/08 07:42:10;;;;;;;;;;;24.20;52.50;;;19.75;77.91;95935.75;4954479;28;20381;-48
2023/07/08 07:44:39;;;;;;;;;;;24.20;52.40;;;19.84;78.23;95936.56;4954870;28;19910;-47
2023/07/08 07:47:06;;;;;;;;;;;24.30;52.30;;;19.88;77.97;95940.22;4953683;28;19910;-52
2023/07/08 07:49:32;;;;;;;;;;;24.30;52.10;;;20.05;78.74;95934.03;4954902;28;20019;-48
2023/07/08 07:51:58;;;;;;;;;;;24.50;52.10;;;20.09;77.55;95932.31;4953410;28;20401;-49
2023/07/08 07:54:24;;;;;;;;;;;24.50;51.90;;;20.24;78.48;95931.03;4954713;28;19937;-53
2023/07/08 07:56:49;;;;;;;;;;;24.70;51.80;;;20.41;80.68;95932.97;4954238;28;19918;-49
2023/07/08 07:59:15;;;;;;;;;;;24.80;51.70;;;20.59;81.88;95930.25;4953359;28;20321;-52
2023/07/08 08:01:42;;;;;;;;;;;25.00;51.60;;;20.66;82.13;95919.75;4954450;28;20399;-48
2023/07/08 08:04:10;;;;;;;;;;;25.20;51.50;;;20.84;79.87;95921.31;4953483;28;19910;-50
2023/07/08 08:06:37;;;;;;;;;;;25.40;51.40;;;20.98;81.14;95923.84;4954657;28;19917;-53
2023/07/08 08:09:04;;;;;;;;;;;25.60;51.30;;;21.10;78.85;95918.53;4962223;28;19909;-48
2023/07/08 08:11:30;;;;;;;;;;;25.80;51.20;;;21.26;78.81;95913.38;4955865;28;20008;-54
2023/07/08 08:13:57;;;;;;;;;;;26.10;51.10;;;21.34;74.91;95915.28;4953423;28;20041;-52
2023/07/08 08:16:23;;;;;;;;;;;26.30;50.80;;;21.53;76.38;95914.91;4952204;28;19956;-52
2023/07/08 08:18:49;;;;;;;;;;;26.50;50.60;;;21.64;72.20;95910.69;4953603;28;20048;-54
2023/07/08 08:21:16;;;;;;;;;;;26.70;50.40;;;21.70;70.39;95909.38;4944084;28;20013;-50
2023/07/08 08:23:42;;;;;;;;;;;27.00;50.10;;;21.92;73.98;95908.28;4953458;28;19997;-49
2023/07/08 08:26:08;;;;;;;;;;;27.20;49.70;;;22.13;67.97;95907.53;4949516;28;19925;-50
2023/07/08 08:28:34;;;;;;;;;;;27.50;49.50;;;22.37;71.45;95902.22;4947963;28;19918;-48
2023/07/08 08:31:00;;;;;;;;;;;27.80;49.20;;;22.72;71.25;95898.41;4953990;28;19910;-50
2023/07/08 08:33:26;;;;;;;;;;;28.10;49.00;;;22.95;68.93;95891.50;4953966;28;19953;-52
2023/07/08 08:35:52;;;;;;;;;;;28.50;48.80;;;23.21;69.04;95884.97;4953333;28;19941;-56
2023/07/08 08:38:17;;;;;;;;;;;28.80;48.50;;;23.31;63.02;95882.59;4968699;28;20025;-52
2023/07/08 08:40:44;;;;;;;;;;;29.20;48.40;;;23.51;65.96;95878.19;4952957;28;19914;-49
2023/07/08 08:43:15;;;;;;;;;;;29.50;47.90;;;23.62;64.69;95873.06;4953869;28;19910;-49
2023/07/08 08:46:11;;;;;;;;;;;29.90;47.60;;;23.94;63.87;95863.22;4967875;28;19961;-53
2023/07/08 08:48:58;;;;;;;;;;;30.30;47.20;;;23.98;59.53;95863.31;4941675;28;20558;-54
2023/07/08 08:51:29;;;;;;;;;;;30.60;46.50;;;24.35;56.55;95860.47;4953944;28;20008;-55
2023/07/08 08:53:58;;;;;;;;;;;30.80;46.00;;;24.51;58.69;95863.25;4953709;28;20352;-52
2023/07/08 08:56:30;;;;;;;;;;;31.00;45.70;;;24.35;54.92;95858.56;4968372;28;19964;-54
2023/07/08 08:59:45;;;;;;;;;;;31.10;45.20;;;24.58;55.16;95866.97;4951728;28;19964;-52
2023/07/08 09:03:09;;;;;;;;;;;31.30;45.20;;;25.04;59.51;95864.69;4940256;28;19921;-52
2023/07/08 09:05:35;;;;;;;;;;;31.40;44.70;;;25.26;58.77;95862.50;4928635;29;19962;-55
2023/07/08 09:08:35;;;;;;;;;;;31.50;44.60;;;25.36;55.94;95867.44;4941878;28;20336;-50
2023/07/08 09:11:51;;;;;;;;;;;31.70;44.40;;;25.47;56.31;95868.47;4951355;28;20288;-54
2023/07/08 09:14:27;;;;;;;;;;;31.80;44.20;;;25.57;56.08;95867.97;4917364;29;19911;-51
2023/07/08 09:17:22;;;;;;;;;;;31.80;43.90;;;25.86;56.93;95871.38;4929088;29;19910;-51
2023/07/08 09:20:07;;;;;;;;;;;32.00;43.80;;;25.67;54.57;95880.25;4946675;28;20458;-50
2023/07/08 09:22:46;;;;;;;;;;;32.20;43.40;;;25.75;51.41;95875.75;4937206;29;19972;-48
2023/07/08 09:25:14;;;;;;;;;;;32.30;42.70;;;25.64;50.85;95875.50;4964544;28;19910;-51
2023/07/08 09:27:41;;;;;;;;;;;32.40;42.00;;;25.27;51.43;95872.28;4951750;28;19922;-51
2023/07/08 09:30:18;;;;;;;;;;;32.50;40.80;;;25.25;52.28;95871.84;4953543;28;19910;-53
2023/07/08 09:32:45;;;;;;;;;;;32.60;40.10;;;25.49;53.75;95866.19;4953564;28;20017;-51
2023/07/08 09:35:29;;;;;;;;;;;32.70;39.80;;;26.16;52.09;95877.06;4951370;28;19949;-53
2023/07/08 09:37:55;;;;;;;;;;;32.80;39.90;;;26.64;50.55;95866.75;4953708;28;19921;-50
2023/07/08 09:40:32;;;;;;;;;;;33.20;39.90;;;27.12;47.41;95860.97;4954316;28;19910;-53
2023/07/08 09:43:23;;;;;;;;;;;33.80;39.60;;;27.53;45.70;95869.47;4956110;28;20005;-52
2023/07/08 09:45:49;;;;;;;;;;;34.10;39.20;;;27.36;45.32;95871.56;4945661;28;20407;-53
2023/07/08 09:48:33;;;;;;;;;;;34.50;38.40;;;27.21;45.82;95872.50;4956594;28;19910;-48
2023/07/08 09:51:00;;;;;;;;;;;34.60;37.50;;;27.63;45.89;95877.84;4956994;28;19940;-52
2023/07/08 09:53:27;;;;;;;;;;;34.70;37.20;;;27.64;44.20;95870.41;4954759;28;19910;-48
2023/07/08 09:55:56;;;;;;;;;;;34.90;36.80;;;27.86;45.18;95875.09;4956927;28;20290;-48
2023/07/08 09:58:44;;;;;;;;;;;35.10;36.60;;;28.10;45.53;95868.38;4954814;28;19914;-48
2023/07/08 10:01:19;;;;;;;;;;;35.30;36.50;;;28.30;43.26;95866.31;4956687;28;20297;-48
2023/07/08 10:03:47;;;;;;;;;;;35.60;36.10;;;28.60;43.50;95869.03;4955945;28;20356;-49
2023/07/08 10:06:30;;;;;;;;;;;35.80;35.90;;;28.76;42.35;95871.53;4956616;28;20308;-48
2023/07/08 10:09:13;;;;;;;;;;;35.90;35.40;;;28.78;40.42;95880.19;4956765;28;19917;-48
2023/07/08 10:11:48;;;;;;;;;;;36.10;35.20;;;28.67;40.32;95876.53;4949847;28;19917;-54
2023/07/08 10:14:51;;;;;;;;;;;36.30;34.40;;;29.03;40.18;95879.69;4955475;28;19914;-49
2023/07/08 10:17:21;;;;;;;;;;;36.50;34.10;;;29.23;40.31;95880.25;4957789;28;19963;-48
2023/07/08 10:19:48;;;;;;;;;;;36.80;33.80;;;29.50;37.68;95892.66;4975576;28;19909;-52
2023/07/08 10:22:47;;;;;;;;;;;37.00;33.60;;;29.62;36.74;95879.84;4970296;28;20372;-52
2023/07/08 10:25:56;;;;;;;;;;;37.10;33.40;;;29.62;37.99;95883.38;4975630;28;19936;-49
2023/07/08 10:28:27;;;;;;;;;;;37.10;33.20;;;29.54;37.66;95883.66;4962727;28;19918;-50
2023/07/08 10:31:31;;;;;;;;;;;37.00;32.90;;;29.51;40.50;95877.75;4989648;28;19910;-51
2023/07/08 10:34:15;;;;;;;;;;;37.00;32.50;;;29.82;38.32;95889.38;4963943;28;19910;-54
2023/07/08 10:36:49;;;;;;;;;;;36.90;32.60;;;29.82;37.89;95888.59;4964220;28;19924;-54
2023/07/08 10:39:34;;;;;;;;;;;36.80;32.80;;;29.47;37.54;95887.91;4965737;28;20288;-52
2023/07/08 10:42:44;;;;;;;;;;;36.60;32.70;;;29.19;38.75;95888.47;4957312;28;19921;-53
2023/07/08 10:45:18;;;;;;;;;;;36.30;32.40;;;29.29;39.89;95881.50;4964528;28;19918;-52
2023/07/08 10:48:12;;;;;;;;;;;36.00;32.70;;;29.36;39.20;95889.00;4958043;28;20344;-50
2023/07/08 10:51:29;;;;;;;;;;;35.80;32.90;;;28.99;41.25;95887.06;4950305;28;20008;-52
2023/07/08 10:54:13;;;;;;;;;;;35.70;33.10;;;28.99;43.80;95889.81;4956375;28;20072;-54
2023/07/08 10:57:30;;;;;;;;;;;35.50;33.20;;;28.90;45.13;95890.13;4973951;28;19910;-49
2023/07/08 11:00:02;;;;;;;;;;;35.30;33.30;;;28.82;46.23;95891.97;4968872;28;19968;-49
2023/07/08 11:02:50;;;;;;;;;;;35.20;33.60;;;28.97;44.42;95883.91;4954733;28;19984;-48
2023/07/08 11:05:35;;;;;;;;;;;35.20;33.90;;;28.90;44.05;95881.09;4955022;28;26879;-48
2023/07/08 11:08:29;;;;;;;;;;;35.20;34.00;;;28.74;46.66;95884.84;4974144;28;19914;-49
2023/07/08 11:11:11;;;;;;;;;;;35.10;34.00;;;28.57;45.48;95880.72;4961915;28;19914;-48
2023/07/08 11:13:52;;;;;;;;;;;35.00;34.20;;;28.45;45.31;95885.66;4972476;28;19952;-49
2023/07/08 11:16:37;;;;;;;;;;;34.90;34.30;;;28.39;43.83;95876.97;4970642;28;20001;-48
2023/07/08 11:19:20;;;;;;;;;;;34.70;34.30;;;28.43;46.40;95886.06;4968422;28;19920;-48
2023/07/08 11:21:52;;;;;;;;;;;34.70;34.40;;;28.47;47.19;95889.63;4970651;28;19913;-48
2023/07/08 11:24:43;;;;;;;;;;;34.80;34.50;;;28.42;48.88;95886.41;4969325;28;19920;-49
2023/07/08 11:27:28;;;;;;;;;;;34.80;34.50;;;28.45;48.71;95882.94;4971857;28;19924;-48
2023/07/08 11:30:11;;;;;;;;;;;34.90;34.60;;;28.18;48.50;95876.72;4963016;28;19921;-48
2023/07/08 11:32:41;;;;;;;;;;;35.10;34.60;;;28.21;49.27;95879.50;4973110;28;19921;-56
2023/07/08 11:35:41;;;;;;;;;;;35.20;34.60;;;28.41;47.51;95877.41;4958649;28;19918;-51